»·PEaware :: N952FG KOLS-KFFZ

N952FG :: KOLS-KFFZ

FLIGHT INFORMATION

Flight Status: Arrived
Operator: Privately registered:
United States
More flights under this callsign
Pilot: Joseph C. (259)
Aircraft: SOCATA TBM-900
(TBM9)
More flights by this aircraft type
Origin: KOLS Nogales Intl
United States
Destination: KFFZ Falcon
United States
More flights between these airports :: More routes between these airports
Route: +OLS2 OLS TUS V105 PXR
File this flight plan on PilotEdge
Remarks:
Altitude:
(Current/Filed)
14,000ft
Speed:
(Current/Filed)
300kts
Departed: 09-Mar-19 09:44 AM
Arrived: 09-Mar-19 10:24 AM
Distance/Time
Traveled:
130nm/0:39
Distance/Time
To Go:
Arrived

Flight Plot

Page will automatically refresh every two minutes.

Flight plan parsing failed; only flown route is shown


Map Options




Map Legend


Flown Route
Filed Route
Departure Airport
Arrival Airport
Navaid (VOR, NDB)
Fix

Horizontal Profiles

Position Reports

Time Latitude Longitude Heading Altitude Ground
Speed
09-Mar-19 09:28 31.418144 -110.850018 47 3887ft 0kts
09-Mar-19 09:29 31.418144 -110.850018 47 3887ft 0kts
09-Mar-19 09:30 31.418144 -110.850017 47 3887ft 0kts
09-Mar-19 09:31 31.418144 -110.850017 47 3887ft 0kts
09-Mar-19 09:31 31.418144 -110.850017 47 3887ft 0kts
09-Mar-19 09:32 31.418144 -110.850017 47 3887ft 0kts
09-Mar-19 09:34 31.418144 -110.850017 47 3887ft 0kts
09-Mar-19 09:34 31.418144 -110.850018 47 3887ft 0kts
09-Mar-19 09:35 31.418144 -110.850017 47 3887ft 0kts
09-Mar-19 09:36 31.418144 -110.850017 47 3887ft 0kts
09-Mar-19 09:38 31.418144 -110.850017 47 3887ft 0kts
09-Mar-19 09:38 31.418144 -110.850017 47 3887ft 0kts
09-Mar-19 09:39 31.418071 -110.849218 45 3890ft 7kts
09-Mar-19 09:40 31.421069 -110.845563 45 3911ft 21kts
09-Mar-19 09:41 31.425147 -110.840475 87 3941ft 10kts
09-Mar-19 09:42 31.424480 -110.839712 167 3944ft 12kts
09-Mar-19 09:43 31.404266 -110.863653 229 4479ft 143kts
09-Mar-19 09:44 31.424610 -110.885551 3 5833ft 143kts
09-Mar-19 09:45 31.464606 -110.881362 6 7401ft 146kts
09-Mar-19 09:46 31.504149 -110.890939 338 8897ft 153kts
09-Mar-19 09:47 31.545647 -110.910462 332 10659ft 163kts
09-Mar-19 09:48 31.586188 -110.929692 327 12536ft 153kts
09-Mar-19 09:49 31.625321 -110.948313 326 14019ft 163kts
09-Mar-19 09:50 31.674308 -110.971479 329 14010ft 203kts
09-Mar-19 09:51 31.733180 -110.974422 359 14008ft 225kts
09-Mar-19 09:52 31.795678 -110.964142 359 14016ft 227kts
09-Mar-19 09:53 31.865451 -110.952712 0 14030ft 270kts
09-Mar-19 09:54 31.941605 -110.940180 0 14021ft 281kts
09-Mar-19 09:55 32.019351 -110.927381 0 14020ft 282kts
09-Mar-19 09:56 32.094942 -110.924973 317 14005ft 257kts
09-Mar-19 09:57 32.133933 -110.992623 296 14017ft 247kts
09-Mar-19 09:58 32.169122 -111.062713 295 14016ft 247kts
09-Mar-19 09:59 32.204079 -111.132807 295 14010ft 247kts
09-Mar-19 10:00 32.238942 -111.202855 295 14004ft 246kts
09-Mar-19 10:01 32.273726 -111.272856 295 13997ft 246kts
09-Mar-19 10:02 32.308431 -111.342841 295 13990ft 246kts
09-Mar-19 10:03 32.343073 -111.412824 295 13987ft 246kts
09-Mar-19 10:04 32.377761 -111.483028 295 13987ft 246kts
09-Mar-19 10:05 32.432631 -111.534987 318 13986ft 257kts
09-Mar-19 10:06 32.491490 -111.583230 318 13987ft 257kts
09-Mar-19 10:07 32.550182 -111.631447 318 14007ft 255kts
09-Mar-19 10:08 32.608865 -111.679739 318 14025ft 256kts
09-Mar-19 10:09 32.667638 -111.728180 318 14029ft 257kts
09-Mar-19 10:10 32.726464 -111.776751 318 14029ft 260kts
09-Mar-19 10:11 32.788006 -111.827684 319 13319ft 278kts
09-Mar-19 10:12 32.850644 -111.879552 319 12128ft 273kts
09-Mar-19 10:13 32.920345 -111.912838 353 10908ft 285kts
09-Mar-19 10:14 32.998659 -111.888570 15 9702ft 290kts
09-Mar-19 10:15 33.075303 -111.862071 16 8504ft 271kts
09-Mar-19 10:16 33.142154 -111.838971 16 7247ft 239kts
09-Mar-19 10:17 33.204921 -111.817244 17 6027ft 233kts
09-Mar-19 10:18 33.267043 -111.795709 17 4822ft 231kts
09-Mar-19 10:19 33.328007 -111.774541 16 3634ft 224kts
09-Mar-19 10:20 33.380096 -111.757062 12 2839ft 177kts
09-Mar-19 10:21 33.426280 -111.747163 11 2036ft 151kts
09-Mar-19 10:22 33.455269 -111.734993 50 1402ft 85kts
09-Mar-19 10:23 33.460076 -111.726705 172 1384ft 9kts
09-Mar-19 10:24 33.458158 -111.727985 141 1381ft 0kts
09-Mar-19 10:25 33.458158 -111.727985 141 1381ft 0kts

Navigation Log

Ident Type
Flight plan parsing failed, navigation log unavailable